sensor_id;sensor_type;location;lat;lon;timestamp;temperature;humidity
6752;DHT22;3413;47.680;9.166;2024-03-17T00:03:34;12.30;73.10
6752;DHT22;3413;47.680;9.166;2024-03-17T00:08:36;12.30;73.10
6752;DHT22;3413;47.680;9.166;2024-03-17T00:13:36;12.40;73.20
6752;DHT22;3413;47.680;9.166;2024-03-17T00:18:37;12.30;73.10
6752;DHT22;3413;47.680;9.166;2024-03-17T00:23:39;12.30;73.10
6752;DHT22;3413;47.680;9.166;2024-03-17T00:28:39;12.30;73.20
6752;DHT22;3413;47.680;9.166;2024-03-17T00:33:41;12.30;73.30
6752;DHT22;3413;47.680;9.166;2024-03-17T00:38:42;12.30;73.30
6752;DHT22;3413;47.680;9.166;2024-03-17T00:43:43;12.20;73.30
6752;DHT22;3413;47.680;9.166;2024-03-17T00:48:48;12.30;73.30
6752;DHT22;3413;47.680;9.166;2024-03-17T00:53:49;12.10;73.20
6752;DHT22;3413;47.680;9.166;2024-03-17T00:58:50;12.10;73.40
6752;DHT22;3413;47.680;9.166;2024-03-17T01:03:52;12.10;73.40
6752;DHT22;3413;47.680;9.166;2024-03-17T01:08:53;12.10;73.40
6752;DHT22;3413;47.680;9.166;2024-03-17T01:13:54;12.20;73.60
6752;DHT22;3413;47.680;9.166;2024-03-17T01:18:55;12.20;73.60
6752;DHT22;3413;47.680;9.166;2024-03-17T01:23:56;12.20;73.60
6752;DHT22;3413;47.680;9.166;2024-03-17T01:28:57;12.20;73.60
6752;DHT22;3413;47.680;9.166;2024-03-17T01:33:57;12.10;74.10
6752;DHT22;3413;47.680;9.166;2024-03-17T01:38:59;12.00;73.70
6752;DHT22;3413;47.680;9.166;2024-03-17T01:44:00;12.00;74.00
6752;DHT22;3413;47.680;9.166;2024-03-17T01:49:01;12.10;73.90
6752;DHT22;3413;47.680;9.166;2024-03-17T01:54:05;12.10;73.90
6752;DHT22;3413;47.680;9.166;2024-03-17T01:59:08;12.10;74.00
6752;DHT22;3413;47.680;9.166;2024-03-17T02:04:10;12.20;74.20
6752;DHT22;3413;47.680;9.166;2024-03-17T02:09:11;12.30;74.20
6752;DHT22;3413;47.680;9.166;2024-03-17T02:14:13;12.30;74.20
6752;DHT22;3413;47.680;9.166;2024-03-17T02:19:15;12.30;74.20
6752;DHT22;3413;47.680;9.166;2024-03-17T02:24:16;12.30;74.00
6752;DHT22;3413;47.680;9.166;2024-03-17T02:29:17;12.30;74.30
6752;DHT22;3413;47.680;9.166;2024-03-17T02:34:18;12.30;74.30
6752;DHT22;3413;47.680;9.166;2024-03-17T02:39:19;12.20;73.90
6752;DHT22;3413;47.680;9.166;2024-03-17T02:44:37;12.20;74.00
6752;DHT22;3413;47.680;9.166;2024-03-17T02:49:39;12.20;73.90
6752;DHT22;3413;47.680;9.166;2024-03-17T02:54:44;12.30;73.90
6752;DHT22;3413;47.680;9.166;2024-03-17T02:59:46;12.20;73.70
6752;DHT22;3413;47.680;9.166;2024-03-17T03:04:48;12.30;73.90
6752;DHT22;3413;47.680;9.166;2024-03-17T03:09:51;12.30;73.90
6752;DHT22;3413;47.680;9.166;2024-03-17T03:14:52;12.20;73.70
6752;DHT22;3413;47.680;9.166;2024-03-17T03:19:54;12.20;73.80
6752;DHT22;3413;47.680;9.166;2024-03-17T03:24:56;12.20;73.80
6752;DHT22;3413;47.680;9.166;2024-03-17T03:29:58;12.30;74.00
6752;DHT22;3413;47.680;9.166;2024-03-17T03:35:01;12.10;73.80
6752;DHT22;3413;47.680;9.166;2024-03-17T03:40:02;12.10;73.80
6752;DHT22;3413;47.680;9.166;2024-03-17T03:45:17;12.10;73.80
6752;DHT22;3413;47.680;9.166;2024-03-17T03:50:21;12.10;73.90
6752;DHT22;3413;47.680;9.166;2024-03-17T03:55:24;12.10;73.90
6752;DHT22;3413;47.680;9.166;2024-03-17T04:00:25;12.20;74.00
6752;DHT22;3413;47.680;9.166;2024-03-17T04:05:31;12.10;73.80
6752;DHT22;3413;47.680;9.166;2024-03-17T04:10:32;12.10;73.90
6752;DHT22;3413;47.680;9.166;2024-03-17T04:15:34;11.90;73.60
6752;DHT22;3413;47.680;9.166;2024-03-17T04:20:35;11.90;73.70
6752;DHT22;3413;47.680;9.166;2024-03-17T04:25:37;11.80;73.60
6752;DHT22;3413;47.680;9.166;2024-03-17T04:30:40;11.80;73.80
6752;DHT22;3413;47.680;9.166;2024-03-17T04:35:42;11.70;73.70
6752;DHT22;3413;47.680;9.166;2024-03-17T04:40:44;11.70;73.70
6752;DHT22;3413;47.680;9.166;2024-03-17T04:45:45;11.70;73.70
6752;DHT22;3413;47.680;9.166;2024-03-17T04:50:48;11.80;73.80
6752;DHT22;3413;47.680;9.166;2024-03-17T04:56:01;11.70;73.70
6752;DHT22;3413;47.680;9.166;2024-03-17T05:01:08;11.60;73.80
6752;DHT22;3413;47.680;9.166;2024-03-17T05:06:10;11.60;73.80
6752;DHT22;3413;47.680;9.166;2024-03-17T05:11:11;11.60;73.50
6752;DHT22;3413;47.680;9.166;2024-03-17T05:16:15;11.70;73.70
6752;DHT22;3413;47.680;9.166;2024-03-17T05:21:17;11.60;73.60
6752;DHT22;3413;47.680;9.166;2024-03-17T05:26:18;11.50;73.40
6752;DHT22;3413;47.680;9.166;2024-03-17T05:31:20;11.40;73.40
6752;DHT22;3413;47.680;9.166;2024-03-17T05:36:23;11.40;73.50
6752;DHT22;3413;47.680;9.166;2024-03-17T05:41:24;11.40;73.40
6752;DHT22;3413;47.680;9.166;2024-03-17T05:46:27;11.40;73.60
6752;DHT22;3413;47.680;9.166;2024-03-17T05:51:28;11.40;73.50
6752;DHT22;3413;47.680;9.166;2024-03-17T05:56:30;11.40;73.50
6752;DHT22;3413;47.680;9.166;2024-03-17T06:01:31;11.30;73.30
6752;DHT22;3413;47.680;9.166;2024-03-17T06:06:33;11.30;73.40
6752;DHT22;3413;47.680;9.166;2024-03-17T06:11:34;11.30;73.40
6752;DHT22;3413;47.680;9.166;2024-03-17T06:16:36;11.30;73.50
6752;DHT22;3413;47.680;9.166;2024-03-17T06:21:38;11.30;73.60
6752;DHT22;3413;47.680;9.166;2024-03-17T06:26:40;11.40;74.50
6752;DHT22;3413;47.680;9.166;2024-03-17T06:31:42;11.40;73.80
6752;DHT22;3413;47.680;9.166;2024-03-17T06:36:43;11.40;73.80
6752;DHT22;3413;47.680;9.166;2024-03-17T06:41:45;11.40;73.80
6752;DHT22;3413;47.680;9.166;2024-03-17T06:46:47;11.30;73.90
6752;DHT22;3413;47.680;9.166;2024-03-17T06:51:48;11.40;74.20
6752;DHT22;3413;47.680;9.166;2024-03-17T06:56:50;11.30;74.20
6752;DHT22;3413;47.680;9.166;2024-03-17T07:01:52;11.30;74.30
6752;DHT22;3413;47.680;9.166;2024-03-17T07:06:54;11.30;74.50
6752;DHT22;3413;47.680;9.166;2024-03-17T07:11:56;11.30;74.60
6752;DHT22;3413;47.680;9.166;2024-03-17T07:16:57;11.30;74.90
6752;DHT22;3413;47.680;9.166;2024-03-17T07:21:59;11.30;74.90
6752;DHT22;3413;47.680;9.166;2024-03-17T07:27:00;11.40;75.20
6752;DHT22;3413;47.680;9.166;2024-03-17T07:32:02;11.50;75.90
6752;DHT22;3413;47.680;9.166;2024-03-17T07:37:03;11.50;75.60
6752;DHT22;3413;47.680;9.166;2024-03-17T07:42:04;11.70;75.80
6752;DHT22;3413;47.680;9.166;2024-03-17T07:47:06;11.80;75.80
6752;DHT22;3413;47.680;9.166;2024-03-17T07:52:07;11.90;76.10
6752;DHT22;3413;47.680;9.166;2024-03-17T07:57:08;12.20;76.00
6752;DHT22;3413;47.680;9.166;2024-03-17T08:02:09;12.30;75.40
6752;DHT22;3413;47.680;9.166;2024-03-17T08:07:11;12.40;75.00
6752;DHT22;3413;47.680;9.166;2024-03-17T08:12:12;12.30;75.20
6752;DHT22;3413;47.680;9.166;2024-03-17T08:17:13;12.30;75.70
6752;DHT22;3413;47.680;9.166;2024-03-17T08:22:14;12.40;76.10
6752;DHT22;3413;47.680;9.166;2024-03-17T08:27:16;12.50;76.20
6752;DHT22;3413;47.680;9.166;2024-03-17T08:32:17;12.70;76.60
6752;DHT22;3413;47.680;9.166;2024-03-17T08:37:18;13.00;76.50
6752;DHT22;3413;47.680;9.166;2024-03-17T08:42:21;13.00;76.70
6752;DHT22;3413;47.680;9.166;2024-03-17T08:47:25;13.00;77.10
6752;DHT22;3413;47.680;9.166;2024-03-17T08:52:30;13.10;77.20
6752;DHT22;3413;47.680;9.166;2024-03-17T09:12:23;13.70;77.90
6752;DHT22;3413;47.680;9.166;2024-03-17T09:17:24;14.30;78.50
6752;DHT22;3413;47.680;9.166;2024-03-17T09:22:24;14.70;78.90
6752;DHT22;3413;47.680;9.166;2024-03-17T09:27:26;15.10;78.90
6752;DHT22;3413;47.680;9.166;2024-03-17T09:32:27;15.30;78.00
6752;DHT22;3413;47.680;9.166;2024-03-17T09:37:31;15.10;78.00
6752;DHT22;3413;47.680;9.166;2024-03-17T09:42:32;15.10;78.40
6752;DHT22;3413;47.680;9.166;2024-03-17T09:47:33;15.40;78.50
6752;DHT22;3413;47.680;9.166;2024-03-17T09:52:34;15.60;78.30
6752;DHT22;3413;47.680;9.166;2024-03-17T09:57:36;15.70;78.00
6752;DHT22;3413;47.680;9.166;2024-03-17T10:02:44;15.70;78.20
6752;DHT22;3413;47.680;9.166;2024-03-17T10:07:46;15.70;79.10
6752;DHT22;3413;47.680;9.166;2024-03-17T10:12:51;15.90;78.30
6752;DHT22;3413;47.680;9.166;2024-03-17T10:17:52;16.00;78.50
6752;DHT22;3413;47.680;9.166;2024-03-17T10:23:01;16.00;78.70
6752;DHT22;3413;47.680;9.166;2024-03-17T10:28:02;16.10;78.80
6752;DHT22;3413;47.680;9.166;2024-03-17T10:33:03;16.30;78.90
6752;DHT22;3413;47.680;9.166;2024-03-17T10:38:09;16.40;79.30
6752;DHT22;3413;47.680;9.166;2024-03-17T10:43:13;16.50;79.00
6752;DHT22;3413;47.680;9.166;2024-03-17T10:48:19;16.70;79.30
6752;DHT22;3413;47.680;9.166;2024-03-17T10:53:22;16.70;79.50
6752;DHT22;3413;47.680;9.166;2024-03-17T10:58:36;16.80;79.30
6752;DHT22;3413;47.680;9.166;2024-03-17T11:03:43;17.10;79.30
6752;DHT22;3413;47.680;9.166;2024-03-17T11:08:46;17.30;79.00
6752;DHT22;3413;47.680;9.166;2024-03-17T11:13:48;17.20;78.70
6752;DHT22;3413;47.680;9.166;2024-03-17T11:18:49;17.10;78.80
6752;DHT22;3413;47.680;9.166;2024-03-17T11:23:58;17.20;79.00
6752;DHT22;3413;47.680;9.166;2024-03-17T11:29:00;17.30;78.80
6752;DHT22;3413;47.680;9.166;2024-03-17T11:34:04;17.20;78.50
6752;DHT22;3413;47.680;9.166;2024-03-17T11:39:10;17.00;78.40
6752;DHT22;3413;47.680;9.166;2024-03-17T11:44:29;17.00;78.50
6752;DHT22;3413;47.680;9.166;2024-03-17T11:54:38;17.00;78.00
6752;DHT22;3413;47.680;9.166;2024-03-17T11:59:41;16.90;78.20
6752;DHT22;3413;47.680;9.166;2024-03-17T12:04:45;16.90;78.40
6752;DHT22;3413;47.680;9.166;2024-03-17T12:09:50;16.90;78.20
6752;DHT22;3413;47.680;9.166;2024-03-17T12:14:52;16.80;78.00
6752;DHT22;3413;47.680;9.166;2024-03-17T12:19:53;16.80;77.90
6752;DHT22;3413;47.680;9.166;2024-03-17T12:24:55;16.80;78.10
6752;DHT22;3413;47.680;9.166;2024-03-17T12:29:56;16.80;78.00
6752;DHT22;3413;47.680;9.166;2024-03-17T12:34:57;16.90;77.90
6752;DHT22;3413;47.680;9.166;2024-03-17T12:40:00;16.90;77.90
6752;DHT22;3413;47.680;9.166;2024-03-17T12:45:02;16.90;78.00
6752;DHT22;3413;47.680;9.166;2024-03-17T12:50:11;17.00;78.10
6752;DHT22;3413;47.680;9.166;2024-03-17T12:55:18;17.00;78.10
6752;DHT22;3413;47.680;9.166;2024-03-17T13:00:38;16.90;78.00
6752;DHT22;3413;47.680;9.166;2024-03-17T13:05:47;17.00;77.90
6752;DHT22;3413;47.680;9.166;2024-03-17T13:10:48;17.00;78.10
6752;DHT22;3413;47.680;9.166;2024-03-17T13:15:49;17.20;78.20
6752;DHT22;3413;47.680;9.166;2024-03-17T13:20:50;17.20;77.70
6752;DHT22;3413;47.680;9.166;2024-03-17T13:25:52;17.20;77.50
6752;DHT22;3413;47.680;9.166;2024-03-17T13:30:53;17.10;77.50
6752;DHT22;3413;47.680;9.166;2024-03-17T13:35:54;17.20;77.40
6752;DHT22;3413;47.680;9.166;2024-03-17T13:40:55;17.20;77.50
6752;DHT22;3413;47.680;9.166;2024-03-17T13:45:57;17.10;77.50
6752;DHT22;3413;47.680;9.166;2024-03-17T13:50:58;17.00;77.50
6752;DHT22;3413;47.680;9.166;2024-03-17T13:55:59;17.00;77.50
6752;DHT22;3413;47.680;9.166;2024-03-17T14:01:00;17.00;77.80
6752;DHT22;3413;47.680;9.166;2024-03-17T14:06:01;17.00;77.70
6752;DHT22;3413;47.680;9.166;2024-03-17T14:11:03;17.10;77.90
6752;DHT22;3413;47.680;9.166;2024-03-17T14:16:05;17.20;77.50
6752;DHT22;3413;47.680;9.166;2024-03-17T14:21:06;17.10;77.40
6752;DHT22;3413;47.680;9.166;2024-03-17T14:26:07;17.00;78.20
6752;DHT22;3413;47.680;9.166;2024-03-17T14:31:08;16.90;77.70
6752;DHT22;3413;47.680;9.166;2024-03-17T14:36:09;17.00;77.80
6752;DHT22;3413;47.680;9.166;2024-03-17T14:41:10;17.00;77.90
6752;DHT22;3413;47.680;9.166;2024-03-17T14:46:12;17.10;78.00
6752;DHT22;3413;47.680;9.166;2024-03-17T14:51:14;17.20;78.10
6752;DHT22;3413;47.680;9.166;2024-03-17T14:56:16;17.30;78.20
6752;DHT22;3413;47.680;9.166;2024-03-17T15:01:17;17.30;78.40
6752;DHT22;3413;47.680;9.166;2024-03-17T15:06:18;17.40;78.50
6752;DHT22;3413;47.680;9.166;2024-03-17T15:11:19;17.40;78.60
6752;DHT22;3413;47.680;9.166;2024-03-17T15:16:20;17.30;79.00
6752;DHT22;3413;47.680;9.166;2024-03-17T15:21:21;17.30;78.60
6752;DHT22;3413;47.680;9.166;2024-03-17T15:26:22;17.10;78.60
6752;DHT22;3413;47.680;9.166;2024-03-17T15:31:24;17.00;78.60
6752;DHT22;3413;47.680;9.166;2024-03-17T15:36:25;16.90;78.50
6752;DHT22;3413;47.680;9.166;2024-03-17T15:41:25;16.80;78.60
6752;DHT22;3413;47.680;9.166;2024-03-17T15:46:26;16.70;78.40
6752;DHT22;3413;47.680;9.166;2024-03-17T15:51:28;16.60;78.30
6752;DHT22;3413;47.680;9.166;2024-03-17T15:56:29;16.50;78.20
6752;DHT22;3413;47.680;9.166;2024-03-17T16:01:29;16.40;78.10
6752;DHT22;3413;47.680;9.166;2024-03-17T16:06:31;16.30;78.00
6752;DHT22;3413;47.680;9.166;2024-03-17T16:11:32;16.20;78.00
6752;DHT22;3413;47.680;9.166;2024-03-17T16:16:33;16.10;77.90
6752;DHT22;3413;47.680;9.166;2024-03-17T16:21:34;16.00;77.90
6752;DHT22;3413;47.680;9.166;2024-03-17T16:26:35;16.00;77.80
6752;DHT22;3413;47.680;9.166;2024-03-17T16:31:42;15.90;77.70
6752;DHT22;3413;47.680;9.166;2024-03-17T16:36:43;15.80;77.80
6752;DHT22;3413;47.680;9.166;2024-03-17T16:41:47;15.80;77.80
6752;DHT22;3413;47.680;9.166;2024-03-17T16:47:26;15.70;77.60
6752;DHT22;3413;47.680;9.166;2024-03-17T16:52:29;15.70;77.60
6752;DHT22;3413;47.680;9.166;2024-03-17T16:57:33;15.60;77.50
6752;DHT22;3413;47.680;9.166;2024-03-17T17:02:35;15.60;77.50
6752;DHT22;3413;47.680;9.166;2024-03-17T17:07:36;15.50;77.40
6752;DHT22;3413;47.680;9.166;2024-03-17T17:12:37;15.40;77.40
6752;DHT22;3413;47.680;9.166;2024-03-17T17:17:38;15.40;77.50
6752;DHT22;3413;47.680;9.166;2024-03-17T17:22:39;15.30;77.30
6752;DHT22;3413;47.680;9.166;2024-03-17T17:27:40;15.30;77.20
6752;DHT22;3413;47.680;9.166;2024-03-17T17:32:42;15.20;77.20
6752;DHT22;3413;47.680;9.166;2024-03-17T17:37:43;15.20;77.20
6752;DHT22;3413;47.680;9.166;2024-03-17T17:42:43;15.10;77.10
6752;DHT22;3413;47.680;9.166;2024-03-17T17:47:44;15.10;77.10
6752;DHT22;3413;47.680;9.166;2024-03-17T17:52:45;15.00;77.00
6752;DHT22;3413;47.680;9.166;2024-03-17T17:57:46;15.00;77.00
6752;DHT22;3413;47.680;9.166;2024-03-17T18:02:47;15.00;77.00
6752;DHT22;3413;47.680;9.166;2024-03-17T18:07:48;15.00;77.00
6752;DHT22;3413;47.680;9.166;2024-03-17T18:12:49;15.00;77.00
6752;DHT22;3413;47.680;9.166;2024-03-17T18:17:50;15.00;77.00
6752;DHT22;3413;47.680;9.166;2024-03-17T18:22:51;15.00;76.80
6752;DHT22;3413;47.680;9.166;2024-03-17T18:27:53;15.10;76.90
6752;DHT22;3413;47.680;9.166;2024-03-17T18:32:54;15.00;76.90
6752;DHT22;3413;47.680;9.166;2024-03-17T18:37:58;15.00;76.80
6752;DHT22;3413;47.680;9.166;2024-03-17T18:42:59;15.00;76.80
6752;DHT22;3413;47.680;9.166;2024-03-17T18:48:00;15.10;76.80
6752;DHT22;3413;47.680;9.166;2024-03-17T18:53:01;15.10;76.70
6752;DHT22;3413;47.680;9.166;2024-03-17T18:58:02;15.20;76.80
6752;DHT22;3413;47.680;9.166;2024-03-17T19:03:03;15.20;76.70
6752;DHT22;3413;47.680;9.166;2024-03-17T19:08:04;15.20;76.20
6752;DHT22;3413;47.680;9.166;2024-03-17T19:13:05;15.30;76.20
6752;DHT22;3413;47.680;9.166;2024-03-17T19:18:08;15.30;76.30
6752;DHT22;3413;47.680;9.166;2024-03-17T19:23:10;15.30;76.50
6752;DHT22;3413;47.680;9.166;2024-03-17T19:28:11;15.30;76.60
6752;DHT22;3413;47.680;9.166;2024-03-17T19:33:12;15.40;76.70
6752;DHT22;3413;47.680;9.166;2024-03-17T19:38:13;15.30;76.60
6752;DHT22;3413;47.680;9.166;2024-03-17T19:43:14;15.40;76.70
6752;DHT22;3413;47.680;9.166;2024-03-17T19:48:15;15.40;76.70
6752;DHT22;3413;47.680;9.166;2024-03-17T19:53:16;15.30;76.70
6752;DHT22;3413;47.680;9.166;2024-03-17T19:58:17;15.30;76.70
6752;DHT22;3413;47.680;9.166;2024-03-17T20:03:18;15.30;76.70
6752;DHT22;3413;47.680;9.166;2024-03-17T20:08:20;15.30;76.80
6752;DHT22;3413;47.680;9.166;2024-03-17T20:13:22;15.30;76.70
6752;DHT22;3413;47.680;9.166;2024-03-17T20:18:23;15.20;76.70
6752;DHT22;3413;47.680;9.166;2024-03-17T20:23:24;15.20;76.80
6752;DHT22;3413;47.680;9.166;2024-03-17T20:28:25;15.20;76.80
6752;DHT22;3413;47.680;9.166;2024-03-17T20:33:26;15.20;76.90
6752;DHT22;3413;47.680;9.166;2024-03-17T20:38:27;15.10;76.80
6752;DHT22;3413;47.680;9.166;2024-03-17T20:43:28;15.10;76.90
6752;DHT22;3413;47.680;9.166;2024-03-17T20:48:29;15.10;76.90
6752;DHT22;3413;47.680;9.166;2024-03-17T20:53:30;15.10;76.80
6752;DHT22;3413;47.680;9.166;2024-03-17T20:58:31;15.10;76.70
6752;DHT22;3413;47.680;9.166;2024-03-17T21:03:32;15.00;76.60
6752;DHT22;3413;47.680;9.166;2024-03-17T21:08:33;14.90;76.60
6752;DHT22;3413;47.680;9.166;2024-03-17T21:13:36;14.90;76.80
6752;DHT22;3413;47.680;9.166;2024-03-17T21:18:37;14.80;76.70
6752;DHT22;3413;47.680;9.166;2024-03-17T21:23:40;14.80;76.70
6752;DHT22;3413;47.680;9.166;2024-03-17T21:28:41;14.70;76.90
6752;DHT22;3413;47.680;9.166;2024-03-17T21:33:42;14.70;76.90
6752;DHT22;3413;47.680;9.166;2024-03-17T21:38:43;14.70;76.70
6752;DHT22;3413;47.680;9.166;2024-03-17T21:43:44;14.60;76.60
6752;DHT22;3413;47.680;9.166;2024-03-17T21:48:47;14.50;76.80
6752;DHT22;3413;47.680;9.166;2024-03-17T21:53:50;14.40;76.70
6752;DHT22;3413;47.680;9.166;2024-03-17T21:58:52;14.40;76.70
6752;DHT22;3413;47.680;9.166;2024-03-17T22:03:53;14.40;76.50
6752;DHT22;3413;47.680;9.166;2024-03-17T22:08:54;14.20;76.70
6752;DHT22;3413;47.680;9.166;2024-03-17T22:13:55;14.20;76.80
6752;DHT22;3413;47.680;9.166;2024-03-17T22:18:56;14.30;76.80
6752;DHT22;3413;47.680;9.166;2024-03-17T22:23:58;14.30;76.80
6752;DHT22;3413;47.680;9.166;2024-03-17T22:28:59;14.40;77.00
6752;DHT22;3413;47.680;9.166;2024-03-17T22:34:00;14.40;76.80
6752;DHT22;3413;47.680;9.166;2024-03-17T22:39:02;14.50;76.90
6752;DHT22;3413;47.680;9.166;2024-03-17T22:44:03;14.40;76.90
6752;DHT22;3413;47.680;9.166;2024-03-17T22:49:04;14.40;77.00
6752;DHT22;3413;47.680;9.166;2024-03-17T22:54:05;14.30;76.80
6752;DHT22;3413;47.680;9.166;2024-03-17T22:59:06;14.40;77.00
6752;DHT22;3413;47.680;9.166;2024-03-17T23:04:07;14.40;77.10
6752;DHT22;3413;47.680;9.166;2024-03-17T23:09:08;14.40;77.00
6752;DHT22;3413;47.680;9.166;2024-03-17T23:14:09;14.50;77.00
6752;DHT22;3413;47.680;9.166;2024-03-17T23:19:10;14.50;76.90
6752;DHT22;3413;47.680;9.166;2024-03-17T23:24:11;14.50;77.00
6752;DHT22;3413;47.680;9.166;2024-03-17T23:29:12;14.50;77.10
6752;DHT22;3413;47.680;9.166;2024-03-17T23:34:13;14.40;77.10
6752;DHT22;3413;47.680;9.166;2024-03-17T23:39:14;14.50;77.20
6752;DHT22;3413;47.680;9.166;2024-03-17T23:44:15;14.50;77.20
6752;DHT22;3413;47.680;9.166;2024-03-17T23:49:17;14.50;77.20
6752;DHT22;3413;47.680;9.166;2024-03-17T23:54:19;14.60;77.20
6752;DHT22;3413;47.680;9.166;2024-03-17T23:59:20;14.50;77.10
